Time;durP1;ratioP1;P1;durP2;ratioP2;P2;SDS_P1;SDS_P2;PMS_P1;PMS_P2;Temp;Humidity;BMP_temperature;BMP_pressure;BME280_temperature;BME280_humidity;BME280_pressure;Samples;Min_cycle;Max_cycle;Signal;HPM_P1;HPM_P2
2023/04/28 00:00:10;;;;;;;7.43;4.50;;;18.60;99.40;;;;;;7389173;19;20007;-71
2023/04/28 00:02:39;;;;;;;;;;;18.70;99.40;;;;;;7386068;19;20374;-71
2023/04/28 00:05:08;;;;;;;7.35;4.00;;;18.60;99.50;;;;;;7383517;19;19928;-71
2023/04/28 00:07:39;;;;;;;9.73;3.70;;;18.60;99.40;;;;;;7405843;19;20014;-71
2023/04/28 00:10:10;;;;;;;4.88;4.10;;;18.70;99.40;;;;;;7384925;19;20080;-71
2023/04/28 00:12:39;;;;;;;4.82;4.32;;;18.70;99.40;;;;;;7385177;19;20019;-71
2023/04/28 00:15:09;;;;;;;5.85;4.25;;;18.70;99.50;;;;;;7386207;19;20026;-70
2023/04/28 00:17:37;;;;;;;6.78;4.30;;;18.70;99.40;;;;;;7384163;19;20417;-70
2023/04/28 00:20:08;;;;;;;7.18;4.65;;;18.70;99.40;;;;;;7383146;19;20371;-70
2023/04/28 00:22:36;;;;;;;10.52;4.88;;;18.70;99.50;;;;;;7404622;19;20015;-69
2023/04/28 00:25:08;;;;;;;9.68;5.43;;;18.70;99.50;;;;;;7385265;19;20074;-71
2023/04/28 00:27:37;;;;;;;10.40;5.85;;;18.70;99.60;;;;;;7384211;19;20007;-71
2023/04/28 00:30:07;;;;;;;18.42;6.45;;;18.70;99.70;;;;;;7384671;19;20432;-71
2023/04/28 00:32:36;;;;;;;9.07;5.78;;;18.70;99.80;;;;;;7386156;19;20381;-71
2023/04/28 00:35:05;;;;;;;10.60;6.00;;;18.50;99.90;;;;;;7385727;19;20358;-71
2023/04/28 00:37:38;;;;;;;12.68;6.43;;;18.50;99.90;;;;;;7406282;19;20371;-70
2023/04/28 00:40:11;;;;;;;10.80;6.45;;;18.50;99.90;;;;;;7385067;19;20022;-71
2023/04/28 00:42:39;;;;;;;8.55;5.95;;;18.50;99.90;;;;;;7384868;19;20006;-70
2023/04/28 00:45:09;;;;;;;9.85;5.80;;;18.50;99.90;;;;;;7384635;19;20030;-70
2023/04/28 00:47:39;;;;;;;8.55;6.32;;;18.50;99.90;;;;;;7382249;19;20010;-70
2023/04/28 00:50:09;;;;;;;9.07;6.53;;;18.50;99.90;;;;;;7384585;19;20086;-71
2023/04/28 00:52:40;;;;;;;13.00;6.57;;;18.40;99.90;;;;;;7405508;19;20028;-70
2023/04/28 00:55:12;;;;;;;8.40;6.88;;;18.40;99.90;;;;;;7383710;19;20006;-72
2023/04/28 00:57:43;;;;;;;13.07;6.50;;;18.50;99.90;;;;;;7386523;19;20020;-70
2023/04/28 01:00:12;;;;;;;10.55;6.30;;;18.50;99.90;;;;;;7384441;19;20498;-70
2023/04/28 01:02:41;;;;;;;9.73;6.60;;;18.60;99.90;;;;;;7382758;19;20003;-71
2023/04/28 01:05:11;;;;;;;14.57;7.25;;;18.60;99.90;;;;;;7380176;19;20066;-71
2023/04/28 01:07:39;;;;;;;6.80;5.90;;;18.50;99.90;;;;;;7403539;19;20011;-71
2023/04/28 01:10:12;;;;;;;9.02;6.10;;;18.50;99.90;;;;;;7383550;19;20007;-70
2023/04/28 01:12:40;;;;;;;12.07;6.20;;;18.50;99.90;;;;;;7386623;19;20064;-70
2023/04/28 01:15:17;;;;;;;7.20;6.30;;;18.50;99.90;;;;;;7397258;19;20413;-70
2023/04/28 01:17:46;;;;;;;8.75;6.28;;;18.40;99.90;;;;;;7387515;19;20062;-70
2023/04/28 01:20:15;;;;;;;9.05;6.10;;;18.40;99.90;;;;;;7381827;19;20350;-70
2023/04/28 01:22:43;;;;;;;9.95;6.25;;;18.40;99.90;;;;;;7403320;19;20011;-70
2023/04/28 01:25:15;;;;;;;8.25;6.30;;;18.40;99.90;;;;;;7383340;19;20054;-71
2023/04/28 01:27:43;;;;;;;8.80;6.40;;;18.40;99.90;;;;;;7382224;19;19998;-70
2023/04/28 01:30:13;;;;;;;7.13;6.07;;;18.40;99.90;;;;;;7382765;19;20361;-70
2023/04/28 01:32:41;;;;;;;7.38;6.53;;;18.40;99.90;;;;;;7383701;19;20082;-71
2023/04/28 01:35:10;;;;;;;9.23;6.57;;;18.50;99.90;;;;;;7380995;19;20395;-70
2023/04/28 01:37:40;;;;;;;10.43;7.13;;;18.50;99.90;;;;;;7402559;19;20007;-71
2023/04/28 01:40:10;;;;;;;11.43;7.00;;;18.40;99.90;;;;;;7382709;19;20002;-70
2023/04/28 01:42:41;;;;;;;11.43;7.55;;;18.50;99.90;;;;;;7382750;19;20003;-70
2023/04/28 01:45:10;;;;;;;;;;;18.40;99.90;;;;;;7383145;19;20308;-70
2023/04/28 01:47:39;;;;;;;12.82;8.05;;;18.50;99.90;;;;;;7382141;19;20625;-71
2023/04/28 01:50:09;;;;;;;10.07;6.85;;;18.50;99.90;;;;;;7381094;19;20021;-70
2023/04/28 01:52:37;;;;;;;9.70;7.70;;;18.40;99.90;;;;;;7405110;19;20024;-70
2023/04/28 01:55:07;;;;;;;11.35;7.30;;;18.40;99.90;;;;;;7383340;19;20066;-70
2023/04/28 01:57:37;;;;;;;10.10;7.25;;;18.40;99.90;;;;;;7382694;19;20096;-70
2023/04/28 02:00:10;;;;;;;13.10;6.93;;;18.40;99.90;;;;;;7383915;19;20007;-71
2023/04/28 02:02:39;;;;;;;11.55;6.80;;;18.30;99.90;;;;;;7383970;19;20002;-71
2023/04/28 02:05:08;;;;;;;8.65;6.03;;;18.30;99.90;;;;;;7383109;19;20050;-71
2023/04/28 02:07:37;;;;;;;7.75;5.70;;;18.30;99.90;;;;;;7403833;19;20307;-71
2023/04/28 02:10:07;;;;;;;16.08;6.47;;;18.40;99.90;;;;;;7382339;19;20003;-70
2023/04/28 02:12:35;;;;;;;8.35;5.30;;;18.30;99.90;;;;;;7383277;19;20009;-70
2023/04/28 02:15:04;;;;;;;10.38;5.05;;;18.40;99.90;;;;;;7383361;19;20003;-70
2023/04/28 02:17:35;;;;;;;6.65;5.18;;;18.30;99.90;;;;;;7382244;19;20011;-71
2023/04/28 02:20:05;;;;;;;5.63;4.32;;;18.30;99.90;;;;;;7387087;19;20034;-70
2023/04/28 02:22:33;;;;;;;6.20;4.05;;;18.40;99.90;;;;;;7403068;19;20041;-71
2023/04/28 02:25:02;;;;;;;4.70;3.90;;;18.30;99.90;;;;;;7382575;19;20019;-71
2023/04/28 02:27:31;;;;;;;5.40;3.60;;;18.40;99.90;;;;;;7382202;19;20078;-70
2023/04/28 02:30:02;;;;;;;;;;;18.30;99.90;;;;;;7381654;19;20067;-70
2023/04/28 02:32:31;;;;;;;3.88;3.10;;;18.40;99.90;;;;;;7381707;19;20065;-70
2023/04/28 02:35:02;;;;;;;5.32;3.10;;;18.40;99.90;;;;;;7403094;19;20093;-70
2023/04/28 02:37:31;;;;;;;3.42;2.85;;;18.20;99.90;;;;;;7381551;19;20066;-70
2023/04/28 02:40:00;;;;;;;3.15;2.55;;;18.30;99.90;;;;;;7380490;19;20055;-71
2023/04/28 02:42:28;;;;;;;4.18;2.80;;;18.30;99.90;;;;;;7381059;19;20011;-70
2023/04/28 02:44:57;;;;;;;3.42;2.50;;;18.20;99.90;;;;;;7381012;19;20050;-70
2023/04/28 02:47:26;;;;;;;3.20;2.28;;;18.00;99.90;;;;;;7381618;19;20026;-70
2023/04/28 02:49:54;;;;;;;3.30;2.15;;;18.10;99.90;;;;;;7405445;19;20007;-69
2023/04/28 02:52:26;;;;;;;2.40;2.20;;;18.20;99.90;;;;;;7381507;19;20013;-71
2023/04/28 02:54:56;;;;;;;3.65;2.03;;;18.20;99.90;;;;;;7381081;19;20058;-70
2023/04/28 02:57:25;;;;;;;1.98;1.80;;;18.10;99.90;;;;;;7380656;19;20285;-70
2023/04/28 02:59:54;;;;;;;2.20;2.00;;;18.00;99.90;;;;;;7380216;19;20010;-70
2023/04/28 03:02:23;;;;;;;2.67;2.10;;;17.90;99.90;;;;;;7379337;19;20007;-70
2023/04/28 03:04:51;;;;;;;3.45;1.80;;;17.90;99.90;;;;;;7400433;19;20014;-70
2023/04/28 03:07:20;;;;;;;2.72;2.15;;;17.90;99.90;;;;;;7379654;19;20306;-70
2023/04/28 03:09:51;;;;;;;1.92;1.83;;;18.00;99.90;;;;;;7380056;19;20386;-70
2023/04/28 03:12:20;;;;;;;4.00;1.95;;;17.80;99.90;;;;;;7380477;19;20397;-71
2023/04/28 03:14:48;;;;;;;3.05;2.17;;;17.80;99.90;;;;;;7380228;19;20019;-71
2023/04/28 03:17:17;;;;;;;2.22;2.03;;;18.00;99.90;;;;;;7378605;19;20030;-71
2023/04/28 03:19:46;;;;;;;4.25;2.13;;;18.00;99.90;;;;;;7399911;19;20023;-70
2023/04/28 03:22:15;;;;;;;4.43;2.08;;;18.10;99.90;;;;;;7378431;19;20023;-70
2023/04/28 03:24:43;;;;;;;9.40;2.13;;;18.20;99.90;;;;;;7378765;19;19998;-70
2023/04/28 03:27:14;;;;;;;2.60;2.20;;;18.00;99.90;;;;;;7379591;19;20516;-70
2023/04/28 03:29:43;;;;;;;4.30;2.10;;;17.90;99.90;;;;;;7378682;19;20023;-71
2023/04/28 03:32:12;;;;;;;6.38;2.20;;;18.10;99.90;;;;;;7384011;19;20006;-70
2023/04/28 03:34:40;;;;;;;5.57;2.55;;;18.10;99.90;;;;;;7411136;19;20014;-70
2023/04/28 03:37:09;;;;;;;9.10;2.55;;;18.20;99.90;;;;;;7381359;19;20235;-69
2023/04/28 03:39:38;;;;;;;7.07;2.30;;;18.10;99.90;;;;;;7379853;19;20449;-71
2023/04/28 03:42:07;;;;;;;3.00;2.25;;;18.20;99.90;;;;;;7380228;19;20401;-71
2023/04/28 03:44:38;;;;;;;5.07;1.70;;;18.20;99.90;;;;;;7378594;19;20002;-71
2023/04/28 03:47:07;;;;;;;2.70;1.83;;;18.20;99.90;;;;;;7381463;19;20406;-71
2023/04/28 03:49:36;;;;;;;4.18;2.60;;;18.30;99.90;;;;;;7398386;19;20070;-71
2023/04/28 03:52:04;;;;;;;3.88;2.20;;;18.20;99.90;;;;;;7378963;19;20010;-71
2023/04/28 03:54:33;;;;;;;5.28;2.22;;;18.30;99.90;;;;;;7378976;19;20243;-70
2023/04/28 03:57:03;;;;;;;4.07;2.22;;;18.30;99.90;;;;;;7379475;19;20007;-71
2023/04/28 03:59:33;;;;;;;2.13;1.88;;;18.30;99.90;;;;;;7379107;19;20006;-71
2023/04/28 04:02:04;;;;;;;2.90;2.20;;;18.30;99.90;;;;;;7399925;19;20398;-71
2023/04/28 04:04:33;;;;;;;6.15;1.90;;;18.20;99.90;;;;;;7379514;19;20260;-71
2023/04/28 04:07:03;;;;;;;3.30;1.90;;;18.20;99.90;;;;;;7378217;19;20074;-71
2023/04/28 04:09:33;;;;;;;3.55;1.88;;;18.20;99.90;;;;;;7377887;19;20075;-71
2023/04/28 04:12:02;;;;;;;3.15;1.75;;;18.00;99.90;;;;;;7378704;19;20007;-71
2023/04/28 04:14:31;;;;;;;1.98;1.63;;;18.00;99.90;;;;;;7378274;19;20294;-71
2023/04/28 04:16:59;;;;;;;2.65;1.88;;;18.10;99.90;;;;;;7397609;19;20014;-71
2023/04/28 04:19:31;;;;;;;1.60;1.48;;;18.20;99.90;;;;;;7377331;19;20007;-70
2023/04/28 04:21:59;;;;;;;2.28;1.67;;;18.10;99.90;;;;;;7376463;19;20023;-71
2023/04/28 04:24:28;;;;;;;4.10;1.80;;;18.20;99.90;;;;;;7378104;19;20003;-71
2023/04/28 04:26:57;;;;;;;2.22;1.52;;;18.20;99.90;;;;;;7378319;19;20015;-71
2023/04/28 04:29:25;;;;;;;1.75;1.63;;;18.00;99.90;;;;;;7377908;19;20024;-71
2023/04/28 04:31:54;;;;;;;2.35;1.77;;;18.00;99.90;;;;;;7399762;19;20014;-71
2023/04/28 04:34:23;;;;;;;3.72;1.60;;;18.00;99.90;;;;;;7378564;19;20023;-71
2023/04/28 04:36:54;;;;;;;2.08;1.42;;;18.00;99.90;;;;;;7378472;19;20010;-71
2023/04/28 04:39:23;;;;;;;1.67;1.58;;;18.10;99.90;;;;;;7378988;19;20362;-71
2023/04/28 04:41:51;;;;;;;2.85;1.30;;;18.20;99.90;;;;;;7385383;19;20023;-71
2023/04/28 04:44:20;;;;;;;2.65;1.65;;;18.20;99.90;;;;;;7385746;19;20019;-70
2023/04/28 04:46:49;;;;;;;1.98;1.60;;;18.20;99.90;;;;;;7403695;19;20350;-70
2023/04/28 04:49:18;;;;;;;2.25;1.63;;;18.20;99.90;;;;;;7382937;19;20471;-70
2023/04/28 04:51:46;;;;;;;2.70;1.80;;;18.20;99.90;;;;;;7386492;19;20007;-70
2023/04/28 04:54:18;;;;;;;4.05;1.80;;;18.20;99.90;;;;;;7385452;19;20020;-71
2023/04/28 04:56:46;;;;;;;2.65;1.58;;;18.20;99.90;;;;;;7385964;19;20083;-70
2023/04/28 04:59:16;;;;;;;3.83;1.83;;;18.30;99.90;;;;;;7384640;19;20011;-70
2023/04/28 05:01:45;;;;;;;2.05;1.83;;;18.30;99.90;;;;;;7403724;19;20006;-71
2023/04/28 05:04:13;;;;;;;2.80;1.85;;;18.30;99.90;;;;;;7383989;19;20539;-71
2023/04/28 05:06:42;;;;;;;2.03;1.80;;;18.30;99.90;;;;;;7384730;19;20019;-71
2023/04/28 05:09:11;;;;;;;2.30;2.00;;;18.30;99.90;;;;;;7385107;19;20003;-71
2023/04/28 05:11:42;;;;;;;1.67;1.55;;;18.30;99.90;;;;;;7385527;19;20006;-71
2023/04/28 05:14:11;;;;;;;;;;;18.30;99.90;;;;;;7383347;19;20062;-71
2023/04/28 05:16:40;;;;;;;2.50;2.10;;;18.40;99.90;;;;;;7402857;19;19932;-70
2023/04/28 05:19:08;;;;;;;2.00;1.67;;;18.40;99.90;;;;;;7382846;19;20003;-70
2023/04/28 05:21:37;;;;;;;1.65;1.55;;;18.40;99.90;;;;;;7382615;19;20159;-71
2023/04/28 05:24:06;;;;;;;2.42;1.98;;;18.40;99.90;;;;;;7383426;19;20018;-71
2023/04/28 05:26:35;;;;;;;2.45;1.80;;;18.40;99.90;;;;;;7381565;19;20058;-71
2023/04/28 05:29:06;;;;;;;2.92;2.17;;;18.20;99.90;;;;;;7404395;19;20062;-70
2023/04/28 05:31:35;;;;;;;1.75;1.50;;;18.20;99.90;;;;;;7383542;19;20069;-70
2023/04/28 05:34:04;;;;;;;6.35;1.70;;;18.20;99.90;;;;;;7383052;19;20015;-71
2023/04/28 05:36:33;;;;;;;3.25;1.98;;;18.10;99.90;;;;;;7382531;19;20011;-70
2023/04/28 05:39:02;;;;;;;2.80;1.83;;;18.20;99.90;;;;;;7383888;19;20250;-70
2023/04/28 05:41:30;;;;;;;4.82;1.60;;;18.20;99.90;;;;;;7383425;19;20016;-71
2023/04/28 05:43:59;;;;;;;3.83;2.10;;;18.30;99.90;;;;;;7402349;19;20296;-69
2023/04/28 05:46:30;;;;;;;3.83;2.20;;;18.30;99.90;;;;;;7382352;19;20002;-69
2023/04/28 05:48:59;;;;;;;;;;;18.20;99.90;;;;;;7382218;19;20026;-69
2023/04/28 05:51:28;;;;;;;3.03;2.22;;;18.40;99.90;;;;;;7383583;19;19951;-70
2023/04/28 05:53:57;;;;;;;4.38;1.88;;;18.20;99.90;;;;;;7390386;19;20030;-70
2023/04/28 05:56:26;;;;;;;6.47;2.38;;;18.30;99.90;;;;;;7386364;19;20212;-69
2023/04/28 05:58:54;;;;;;;7.10;2.45;;;18.40;99.90;;;;;;7406097;19;20087;-70
2023/04/28 06:01:24;;;;;;;2.72;2.20;;;18.40;99.90;;;;;;7384950;19;20405;-69
2023/04/28 06:03:57;;;;;;;5.97;2.92;;;18.50;99.90;;;;;;7384813;19;20083;-69
2023/04/28 06:06:26;;;;;;;7.32;2.45;;;18.50;99.90;;;;;;7384178;19;20007;-70
2023/04/28 06:08:55;;;;;;;3.17;2.10;;;18.50;99.90;;;;;;7382611;19;20010;-70
2023/04/28 06:11:23;;;;;;;3.97;2.20;;;18.50;99.90;;;;;;7382607;19;20289;-69
2023/04/28 06:13:53;;;;;;;2.72;2.40;;;18.50;99.90;;;;;;7405350;19;20020;-70
2023/04/28 06:16:22;;;;;;;3.55;2.28;;;18.50;99.90;;;;;;7384601;19;20070;-69
2023/04/28 06:18:52;;;;;;;3.88;2.45;;;18.50;99.90;;;;;;7384243;19;20006;-70
2023/04/28 06:21:24;;;;;;;2.45;2.25;;;18.60;99.90;;;;;;7385363;19;20006;-70
2023/04/28 06:23:52;;;;;;;6.82;2.42;;;18.60;99.90;;;;;;7384221;19;20072;-70
2023/04/28 06:26:21;;;;;;;4.93;2.35;;;18.60;99.90;;;;;;7384266;19;20006;-70
2023/04/28 06:28:50;;;;;;;6.30;2.30;;;18.60;99.90;;;;;;7403449;19;20017;-70
2023/04/28 06:31:18;;;;;;;3.67;2.15;;;18.60;99.90;;;;;;7381237;19;20006;-70
2023/04/28 06:33:47;;;;;;;3.10;2.58;;;18.60;99.90;;;;;;7381455;19;20086;-70
2023/04/28 06:36:16;;;;;;;3.55;2.40;;;18.60;99.90;;;;;;7383691;19;20248;-70
2023/04/28 06:38:48;;;;;;;5.15;2.50;;;18.50;99.90;;;;;;7380119;19;20015;-70
2023/04/28 06:41:16;;;;;;;3.42;2.22;;;18.50;99.90;;;;;;7381727;19;20031;-70
2023/04/28 06:43:45;;;;;;;4.07;2.53;;;18.60;99.90;;;;;;7401180;19;20025;-70
2023/04/28 06:46:14;;;;;;;2.80;2.25;;;18.70;99.90;;;;;;7380513;19;20380;-70
2023/04/28 06:48:43;;;;;;;7.55;2.50;;;18.60;99.90;;;;;;7380881;19;20010;-70
2023/04/28 06:51:11;;;;;;;4.55;2.55;;;18.70;99.90;;;;;;7380897;19;20027;-70
2023/04/28 06:53:40;;;;;;;7.57;3.13;;;18.70;99.90;;;;;;7381164;19;20056;-70
2023/04/28 06:56:11;;;;;;;4.65;2.50;;;18.70;99.90;;;;;;7403544;19;20014;-70
2023/04/28 06:58:40;;;;;;;;;;;18.70;99.90;;;;;;7381422;19;20006;-70
2023/04/28 07:01:09;;;;;;;5.43;3.10;;;18.80;99.90;;;;;;7380386;19;19968;-70
2023/04/28 07:03:38;;;;;;;6.20;2.55;;;18.90;99.90;;;;;;7378119;19;20066;-70
2023/04/28 07:06:07;;;;;;;5.15;2.70;;;18.90;99.90;;;;;;7381096;19;19999;-70
2023/04/28 07:08:36;;;;;;;5.03;2.85;;;18.80;99.90;;;;;;7378998;19;20357;-70
2023/04/28 07:11:05;;;;;;;3.45;2.90;;;18.80;99.90;;;;;;7403304;19;20023;-71
2023/04/28 07:13:37;;;;;;;5.78;2.60;;;18.90;99.90;;;;;;7381107;19;20063;-71
2023/04/28 07:16:06;;;;;;;4.80;3.25;;;18.90;99.90;;;;;;7380790;19;20007;-70
2023/04/28 07:18:35;;;;;;;5.18;2.90;;;19.00;99.90;;;;;;7380107;19;20405;-70
2023/04/28 07:21:04;;;;;;;5.05;3.08;;;19.00;99.90;;;;;;7379520;19;20379;-70
2023/04/28 07:23:33;;;;;;;7.43;2.92;;;18.80;99.90;;;;;;7380474;19;20051;-71
2023/04/28 07:26:01;;;;;;;4.05;2.53;;;18.90;99.90;;;;;;7400009;19;20003;-71
2023/04/28 07:28:30;;;;;;;5.15;2.75;;;18.90;99.90;;;;;;7380335;19;20019;-71
2023/04/28 07:31:01;;;;;;;4.57;2.60;;;19.00;99.90;;;;;;7382097;19;20015;-71
2023/04/28 07:33:30;;;;;;;7.07;2.72;;;19.00;99.90;;;;;;7380240;19;20390;-70
2023/04/28 07:35:59;;;;;;;5.95;2.63;;;19.00;99.90;;;;;;7350018;19;20066;-71
2023/04/28 07:38:28;;;;;;;3.33;2.75;;;19.10;99.90;;;;;;7381705;19;20023;-71
2023/04/28 07:40:56;;;;;;;6.03;2.80;;;19.10;99.90;;;;;;7402593;19;20015;-71
2023/04/28 07:43:25;;;;;;;5.57;2.85;;;19.10;99.90;;;;;;7379960;19;20318;-71
2023/04/28 07:45:54;;;;;;;3.60;2.58;;;19.20;99.90;;;;;;7379240;19;20078;-71
2023/04/28 07:48:26;;;;;;;3.05;2.55;;;19.00;99.90;;;;;;7378382;19;20019;-71
2023/04/28 07:50:54;;;;;;;5.72;2.72;;;19.00;99.90;;;;;;7378559;19;20027;-71
2023/04/28 07:53:23;;;;;;;5.93;2.72;;;19.10;99.90;;;;;;7379284;19;20006;-71
2023/04/28 07:55:52;;;;;;;6.97;2.75;;;19.20;99.90;;;;;;7398527;19;20006;-71
2023/04/28 07:58:20;;;;;;;3.83;3.00;;;19.20;99.90;;;;;;7378158;19;20010;-71
2023/04/28 08:00:49;;;;;;;3.03;2.47;;;19.20;99.90;;;;;;7378472;19;20064;-71
2023/04/28 08:03:18;;;;;;;4.50;2.15;;;19.30;99.90;;;;;;7377912;19;20248;-71
2023/04/28 08:05:49;;;;;;;4.18;2.00;;;19.30;99.90;;;;;;7377968;19;20066;-71
2023/04/28 08:08:18;;;;;;;5.97;2.13;;;19.30;99.90;;;;;;7378657;19;20067;-71
2023/04/28 08:10:48;;;;;;;5.32;2.80;;;19.30;99.90;;;;;;7398605;19;20039;-71
2023/04/28 08:13:17;;;;;;;2.45;2.17;;;19.40;99.90;;;;;;7385805;19;20027;-71
2023/04/28 08:15:45;;;;;;;7.88;2.05;;;19.30;99.70;;;;;;7390419;19;20011;-71
2023/04/28 08:18:14;;;;;;;6.05;1.77;;;19.10;99.90;;;;;;7389556;19;20020;-71
2023/04/28 08:20:43;;;;;;;2.17;1.80;;;19.30;99.80;;;;;;7386467;19;20018;-71
2023/04/28 08:23:15;;;;;;;2.17;1.75;;;19.10;99.80;;;;;;7392758;19;20074;-71
2023/04/28 08:25:44;;;;;;;5.85;2.00;;;19.30;99.80;;;;;;7407738;19;20300;-71
2023/04/28 08:28:12;;;;;;;4.30;1.85;;;19.40;99.40;;;;;;7387970;19;20058;-71
2023/04/28 08:30:41;;;;;;;5.35;1.67;;;19.40;99.30;;;;;;7384903;19;20026;-71
2023/04/28 08:33:10;;;;;;;3.55;1.90;;;19.60;99.10;;;;;;7385343;19;20354;-71
2023/04/28 08:35:38;;;;;;;5.13;1.90;;;19.60;99.10;;;;;;7385625;19;20361;-71
2023/04/28 08:38:12;;;;;;;2.90;2.40;;;19.60;99.10;;;;;;7404743;19;20010;-71
2023/04/28 08:40:44;;;;;;;4.47;1.92;;;19.70;99.20;;;;;;7385239;19;20287;-71
2023/04/28 08:43:13;;;;;;;3.22;1.90;;;19.80;99.10;;;;;;7384650;19;20211;-71
2023/04/28 08:45:44;;;;;;;2.05;1.83;;;19.80;98.80;;;;;;7383617;19;20017;-71
2023/04/28 08:48:23;;;;;;;9.10;1.80;;;19.80;98.70;;;;;;7384530;19;20373;-71
2023/04/28 08:50:54;;;;;;;4.75;1.90;;;19.80;98.70;;;;;;7383512;19;20007;-71
2023/04/28 08:53:26;;;;;;;4.10;1.80;;;19.90;98.70;;;;;;7407149;19;20015;-71
2023/04/28 08:55:59;;;;;;;1.63;1.52;;;20.00;98.70;;;;;;7407355;19;20010;-71
2023/04/28 08:58:29;;;;;;;4.80;1.67;;;20.10;98.40;;;;;;7376856;19;20026;-71
2023/04/28 09:00:58;;;;;;;2.35;1.65;;;20.10;98.10;;;;;;7390051;19;20358;-72
2023/04/28 09:03:28;;;;;;;4.47;1.58;;;20.20;98.10;;;;;;7387455;19;20011;-72
2023/04/28 09:05:57;;;;;;;5.63;1.80;;;20.10;97.20;;;;;;7384277;19;20062;-77
2023/04/28 09:08:26;;;;;;;2.08;1.60;;;20.10;97.60;;;;;;7405918;19;20665;-72
2023/04/28 09:11:13;;;;;;;4.18;1.90;;;20.10;97.70;;;;;;7383903;19;20013;-72
2023/04/28 09:13:42;;;;;;;2.40;1.70;;;20.00;98.00;;;;;;7385610;19;20003;-73
2023/04/28 09:16:11;;;;;;;1.60;1.42;;;20.10;97.60;;;;;;7386684;19;20010;-73
2023/04/28 09:18:40;;;;;;;9.93;1.77;;;19.90;97.70;;;;;;7386209;19;20011;-73
2023/04/28 09:21:11;;;;;;;4.43;1.70;;;20.00;97.60;;;;;;7384503;19;20014;-73
2023/04/28 09:23:49;;;;;;;5.55;1.90;;;19.90;97.60;;;;;;7403679;19;20710;-72
2023/04/28 09:26:21;;;;;;;3.55;1.65;;;19.80;97.60;;;;;;7383542;19;20079;-73
2023/04/28 09:28:49;;;;;;;;;;;19.80;97.80;;;;;;7386250;19;20003;-73
2023/04/28 09:31:26;;;;;;;2.83;1.70;;;20.00;97.90;;;;;;7385972;19;19911;-73
2023/04/28 09:34:02;;;;;;;2.60;1.60;;;19.90;97.50;;;;;;7387835;19;20016;-73
2023/04/28 09:36:31;;;;;;;1.83;1.70;;;19.70;97.60;;;;;;7386686;19;20010;-73
2023/04/28 09:39:01;;;;;;;6.25;1.83;;;19.70;97.90;;;;;;7385288;19;20006;-73
2023/04/28 09:41:42;;;;;;;3.78;1.67;;;19.50;98.00;;;;;;7404242;19;20007;-73
2023/04/28 09:44:17;;;;;;;8.40;1.95;;;19.40;98.10;;;;;;7384363;19;20009;-73
2023/04/28 09:46:47;;;;;;;4.57;1.98;;;19.50;98.10;;;;;;7385581;19;20011;-73
2023/04/28 09:49:16;;;;;;;4.55;1.85;;;19.60;98.30;;;;;;7388341;19;20239;-73
2023/04/28 09:51:45;;;;;;;3.13;1.67;;;19.60;98.30;;;;;;7387613;19;20129;-73
2023/04/28 09:54:14;;;;;;;1.85;1.75;;;19.70;97.80;;;;;;7384553;19;20298;-73
2023/04/28 09:56:48;;;;;;;6.07;1.80;;;19.50;97.90;;;;;;7403993;19;20369;-73
2023/04/28 09:59:17;;;;;;;6.70;1.70;;;19.70;97.90;;;;;;7384379;19;20022;-73
2023/04/28 10:01:47;;;;;;;5.90;1.70;;;19.80;97.60;;;;;;7384266;19;20086;-73
2023/04/28 10:04:16;;;;;;;1.83;1.73;;;19.70;97.40;;;;;;7384359;19;20023;-74
2023/04/28 10:06:46;;;;;;;6.78;1.48;;;19.90;97.60;;;;;;7383704;19;20002;-73
2023/04/28 10:09:16;;;;;;;2.03;1.52;;;19.90;97.50;;;;;;7384131;19;20277;-74
2023/04/28 10:11:48;;;;;;;5.68;1.60;;;19.90;97.10;;;;;;7403973;19;20038;-73
2023/04/28 10:14:16;;;;;;;1.30;1.20;;;19.70;97.00;;;;;;7383523;19;20018;-73
2023/04/28 10:16:50;;;;;;;1.98;1.40;;;19.90;97.20;;;;;;7383223;19;20133;-73
2023/04/28 10:19:19;;;;;;;5.32;1.30;;;20.00;96.90;;;;;;7383352;19;20365;-73
2023/04/28 10:22:00;;;;;;;2.83;1.60;;;20.00;97.00;;;;;;7382344;19;20349;-74
2023/04/28 10:24:32;;;;;;;1.73;1.40;;;20.10;96.40;;;;;;7384435;19;20031;-72
2023/04/28 10:27:13;;;;;;;4.82;1.10;;;20.20;96.30;;;;;;7381884;19;20002;-70
2023/04/28 10:29:42;;;;;;;2.08;1.20;;;20.40;96.10;;;;;;7402723;19;20003;-73
2023/04/28 10:32:25;;;;;;;1.83;1.27;;;20.40;95.80;;;;;;7384510;19;20089;-74
2023/04/28 10:34:54;;;;;;;1.92;1.20;;;20.40;95.20;;;;;;7391821;19;20026;-73
2023/04/28 10:37:42;;;;;;;3.67;1.08;;;20.60;95.50;;;;;;7388436;19;20002;-73
2023/04/28 10:40:35;;;;;;;0.90;0.90;;;20.50;94.80;;;;;;7386479;19;20015;-73
2023/04/28 10:43:08;;;;;;;0.90;0.90;;;20.70;95.20;;;;;;7386194;19;20046;-73
2023/04/28 10:46:02;;;;;;;1.85;1.00;;;20.70;94.90;;;;;;7386938;19;20068;-73
2023/04/28 10:48:55;;;;;;;4.22;1.17;;;20.80;94.60;;;;;;7383307;19;20026;-73
2023/04/28 10:51:34;;;;;;;2.28;1.10;;;20.80;94.10;;;;;;7382443;19;20006;-73
2023/04/28 10:54:20;;;;;;;3.50;0.88;;;20.90;94.10;;;;;;7383616;19;20006;-73
2023/04/28 10:57:16;;;;;;;5.00;0.90;;;20.90;94.00;;;;;;7404398;19;20021;-73
2023/04/28 10:59:49;;;;;;;3.17;1.10;;;20.80;93.20;;;;;;7385475;19;20014;-73
2023/04/28 11:02:40;;;;;;;2.15;0.90;;;21.00;93.60;;;;;;7384695;19;20003;-74
2023/04/28 11:05:17;;;;;;;1.50;1.30;;;20.90;93.00;;;;;;7382573;19;20019;-73
2023/04/28 11:08:34;;;;;;;1.17;1.08;;;20.90;93.50;;;;;;7382230;19;20420;-73
2023/04/28 11:11:23;;;;;;;2.67;1.00;;;20.80;93.80;;;;;;7380823;19;20009;-72
2023/04/28 11:13:53;;;;;;;1.73;1.30;;;20.90;93.80;;;;;;7382056;19;20010;-73
2023/04/28 11:16:26;;;;;;;4.55;1.30;;;20.70;93.50;;;;;;7381246;19;20006;-73
2023/04/28 11:18:57;;;;;;;1.52;1.27;;;20.70;93.90;;;;;;7380890;19;19999;-74
2023/04/28 11:21:27;;;;;;;;;;;20.50;94.00;;;;;;7382555;19;20006;-73
2023/04/28 11:23:56;;;;;;;6.28;1.30;;;20.80;94.20;;;;;;7382293;19;19910;-73
2023/04/28 11:26:25;;;;;;;5.05;1.73;;;21.00;94.20;;;;;;7402605;19;20376;-73
2023/04/28 11:28:55;;;;;;;1.25;1.15;;;20.90;94.80;;;;;;7381485;19;20306;-73
2023/04/28 11:31:27;;;;;;;2.25;1.23;;;21.00;94.30;;;;;;7379631;19;20006;-73
2023/04/28 11:34:01;;;;;;;2.65;1.10;;;20.90;93.90;;;;;;7380414;19;20019;-73
2023/04/28 11:36:34;;;;;;;1.92;1.20;;;20.90;93.80;;;;;;7380254;19;20002;-73
2023/04/28 11:39:03;;;;;;;3.67;1.58;;;20.90;93.60;;;;;;7381492;19;20068;-73
2023/04/28 11:41:33;;;;;;;1.30;1.10;;;20.70;93.60;;;;;;7402921;19;20023;-73
2023/04/28 11:44:02;;;;;;;2.40;1.13;;;20.90;93.50;;;;;;7382465;19;20054;-73
2023/04/28 11:46:33;;;;;;;1.27;1.10;;;21.00;93.30;;;;;;7383120;19;20040;-73
2023/04/28 11:49:03;;;;;;;;;;;21.10;92.90;;;;;;7384272;19;20061;-73
2023/04/28 11:51:37;;;;;;;2.90;1.15;;;21.30;92.80;;;;;;7382557;19;19921;-73
2023/04/28 11:54:10;;;;;;;1.33;1.00;;;21.30;92.80;;;;;;7382844;19;20011;-74
2023/04/28 11:56:40;;;;;;;2.30;0.90;;;21.40;93.10;;;;;;7403599;19;20006;-73
2023/04/28 11:59:10;;;;;;;2.35;0.90;;;21.40;92.50;;;;;;7380279;19;20023;-72
2023/04/28 12:01:51;;;;;;;0.98;0.95;;;21.50;92.30;;;;;;7380370;19;20006;-73
2023/04/28 12:04:30;;;;;;;2.60;1.05;;;21.40;92.10;;;;;;7382394;19;20007;-73
2023/04/28 12:07:04;;;;;;;1.33;1.20;;;21.20;92.40;;;;;;7382864;19;20357;-72
2023/04/28 12:09:36;;;;;;;1.95;1.20;;;21.30;91.90;;;;;;7381913;19;20012;-74
2023/04/28 12:12:06;;;;;;;2.60;1.00;;;21.10;91.80;;;;;;7383494;19;20013;-73
2023/04/28 12:14:55;;;;;;;1.60;1.10;;;21.30;92.30;;;;;;7404164;19;20266;-73
2023/04/28 12:17:31;;;;;;;1.05;0.90;;;21.50;91.90;;;;;;7380577;19;20010;-72
2023/04/28 12:20:01;;;;;;;2.53;0.85;;;21.50;91.30;;;;;;7379827;19;20016;-72
2023/04/28 12:22:30;;;;;;;4.60;1.00;;;21.60;92.00;;;;;;7379830;19;20062;-72
2023/04/28 12:25:06;;;;;;;2.45;1.00;;;21.80;91.80;;;;;;7379099;19;20019;-73
2023/04/28 12:27:37;;;;;;;1.50;0.90;;;21.90;91.60;;;;;;7379708;19;20271;-73
2023/04/28 12:30:25;;;;;;;1.75;0.90;;;22.10;90.80;;;;;;7379202;19;20063;-72
2023/04/28 12:32:57;;;;;;;1.80;0.93;;;22.30;90.10;;;;;;7392251;19;20231;-72
2023/04/28 12:35:26;;;;;;;1.13;1.02;;;22.40;90.40;;;;;;7399150;19;20024;-72
2023/04/28 12:37:57;;;;;;;1.75;0.82;;;22.70;90.40;;;;;;7378636;19;20011;-72
2023/04/28 12:40:26;;;;;;;2.85;1.00;;;22.80;89.70;;;;;;7379769;19;20235;-73
2023/04/28 12:42:55;;;;;;;1.80;0.85;;;22.90;88.70;;;;;;7379844;19;20016;-73
2023/04/28 12:45:24;;;;;;;1.67;0.80;;;23.00;85.20;;;;;;7378223;19;20018;-72
2023/04/28 12:47:55;;;;;;;9.48;1.17;;;23.10;86.10;;;;;;7402335;19;20014;-72
2023/04/28 12:50:25;;;;;;;6.55;1.00;;;23.20;86.60;;;;;;7388125;19;20006;-72
2023/04/28 12:52:55;;;;;;;1.40;0.98;;;23.40;88.30;;;;;;7381785;19;20007;-72
2023/04/28 12:55:23;;;;;;;2.75;0.90;;;23.50;86.00;;;;;;7380197;19;19999;-71
2023/04/28 12:57:52;;;;;;;1.25;0.80;;;23.40;84.70;;;;;;7379222;19;20017;-71
2023/04/28 13:00:22;;;;;;;2.92;0.80;;;23.20;86.00;;;;;;7380443;19;20007;-71
2023/04/28 13:02:51;;;;;;;3.38;0.95;;;23.10;86.60;;;;;;7405940;19;20066;-71
2023/04/28 13:05:23;;;;;;;2.28;0.70;;;23.00;86.40;;;;;;7386425;19;20002;-71